sensor_id;sensor_type;location;lat;lon;timestamp;P1;durP1;ratioP1;P2;durP2;ratioP2
58784;SDS011;44557;51.862;19.378;2022-10-16T00:00:54;15.50;;;10.40;;
58784;SDS011;44557;51.862;19.378;2022-10-16T00:02:07;13.80;;;10.70;;
58784;SDS011;44557;51.862;19.378;2022-10-16T00:03:09;13.60;;;10.20;;
58784;SDS011;44557;51.862;19.378;2022-10-16T00:04:11;14.30;;;10.20;;
58784;SDS011;44557;51.862;19.378;2022-10-16T00:05:13;14.80;;;10.70;;
58784;SDS011;44557;51.862;19.378;2022-10-16T00:06:15;15.00;;;10.40;;
58784;SDS011;44557;51.862;19.378;2022-10-16T00:07:18;15.10;;;11.10;;
58784;SDS011;44557;51.862;19.378;2022-10-16T00:08:20;13.90;;;11.30;;
58784;SDS011;44557;51.862;19.378;2022-10-16T00:09:21;14.40;;;10.00;;
58784;SDS011;44557;51.862;19.378;2022-10-16T00:10:23;15.10;;;11.60;;
58784;SDS011;44557;51.862;19.378;2022-10-16T00:11:29;14.40;;;11.00;;
58784;SDS011;44557;51.862;19.378;2022-10-16T00:12:34;17.30;;;10.40;;
58784;SDS011;44557;51.862;19.378;2022-10-16T00:13:36;15.20;;;11.10;;
58784;SDS011;44557;51.862;19.378;2022-10-16T00:14:39;14.70;;;9.90;;
58784;SDS011;44557;51.862;19.378;2022-10-16T00:15:42;13.10;;;9.80;;
58784;SDS011;44557;51.862;19.378;2022-10-16T00:16:45;12.30;;;10.00;;
58784;SDS011;44557;51.862;19.378;2022-10-16T00:17:49;14.70;;;9.70;;
58784;SDS011;44557;51.862;19.378;2022-10-16T00:18:50;14.70;;;10.10;;
58784;SDS011;44557;51.862;19.378;2022-10-16T00:19:52;15.00;;;10.50;;
58784;SDS011;44557;51.862;19.378;2022-10-16T00:20:53;18.70;;;11.10;;
58784;SDS011;44557;51.862;19.378;2022-10-16T00:21:56;14.30;;;10.40;;
58784;SDS011;44557;51.862;19.378;2022-10-16T00:22:57;14.30;;;10.00;;
58784;SDS011;44557;51.862;19.378;2022-10-16T00:24:00;15.80;;;11.10;;
58784;SDS011;44557;51.862;19.378;2022-10-16T00:25:04;13.60;;;10.30;;
58784;SDS011;44557;51.862;19.378;2022-10-16T00:26:08;16.10;;;11.20;;
58784;SDS011;44557;51.862;19.378;2022-10-16T00:27:11;13.80;;;10.30;;
58784;SDS011;44557;51.862;19.378;2022-10-16T00:28:13;14.40;;;10.30;;
58784;SDS011;44557;51.862;19.378;2022-10-16T00:29:14;14.00;;;10.50;;
58784;SDS011;44557;51.862;19.378;2022-10-16T00:30:16;14.90;;;10.70;;
58784;SDS011;44557;51.862;19.378;2022-10-16T00:31:18;13.40;;;9.50;;
58784;SDS011;44557;51.862;19.378;2022-10-16T00:32:21;18.60;;;11.10;;
58784;SDS011;44557;51.862;19.378;2022-10-16T00:33:23;12.80;;;10.10;;
58784;SDS011;44557;51.862;19.378;2022-10-16T00:34:25;13.50;;;10.60;;
58784;SDS011;44557;51.862;19.378;2022-10-16T00:35:26;14.50;;;11.40;;
58784;SDS011;44557;51.862;19.378;2022-10-16T00:36:29;14.80;;;11.00;;
58784;SDS011;44557;51.862;19.378;2022-10-16T00:37:31;15.90;;;11.50;;
58784;SDS011;44557;51.862;19.378;2022-10-16T00:38:33;15.40;;;11.50;;
58784;SDS011;44557;51.862;19.378;2022-10-16T00:39:35;16.60;;;10.80;;
58784;SDS011;44557;51.862;19.378;2022-10-16T00:40:36;15.90;;;11.30;;
58784;SDS011;44557;51.862;19.378;2022-10-16T00:41:38;14.80;;;11.50;;
58784;SDS011;44557;51.862;19.378;2022-10-16T00:42:39;16.00;;;12.00;;
58784;SDS011;44557;51.862;19.378;2022-10-16T00:43:42;15.10;;;11.10;;
58784;SDS011;44557;51.862;19.378;2022-10-16T00:45:56;14.60;;;10.70;;
58784;SDS011;44557;51.862;19.378;2022-10-16T00:46:58;14.90;;;10.90;;
58784;SDS011;44557;51.862;19.378;2022-10-16T00:47:59;13.70;;;10.20;;
58784;SDS011;44557;51.862;19.378;2022-10-16T00:51:19;14.00;;;10.80;;
58784;SDS011;44557;51.862;19.378;2022-10-16T00:52:24;15.00;;;11.50;;
58784;SDS011;44557;51.862;19.378;2022-10-16T00:53:25;14.40;;;10.90;;
58784;SDS011;44557;51.862;19.378;2022-10-16T00:54:29;15.60;;;11.20;;
58784;SDS011;44557;51.862;19.378;2022-10-16T00:55:32;13.20;;;11.10;;
58784;SDS011;44557;51.862;19.378;2022-10-16T00:56:33;15.10;;;11.70;;
58784;SDS011;44557;51.862;19.378;2022-10-16T00:57:36;15.00;;;10.90;;
58784;SDS011;44557;51.862;19.378;2022-10-16T00:58:38;14.20;;;10.50;;
58784;SDS011;44557;51.862;19.378;2022-10-16T00:59:40;14.30;;;10.70;;
58784;SDS011;44557;51.862;19.378;2022-10-16T01:00:43;14.70;;;11.00;;
58784;SDS011;44557;51.862;19.378;2022-10-16T01:01:45;12.90;;;10.00;;
58784;SDS011;44557;51.862;19.378;2022-10-16T01:02:53;15.60;;;10.70;;
58784;SDS011;44557;51.862;19.378;2022-10-16T01:04:57;14.80;;;10.20;;
58784;SDS011;44557;51.862;19.378;2022-10-16T01:11:17;13.40;;;10.20;;
58784;SDS011;44557;51.862;19.378;2022-10-16T01:12:52;13.80;;;10.80;;
58784;SDS011;44557;51.862;19.378;2022-10-16T01:14:02;11.80;;;10.00;;
58784;SDS011;44557;51.862;19.378;2022-10-16T01:16:34;13.10;;;9.80;;
58784;SDS011;44557;51.862;19.378;2022-10-16T01:17:43;15.60;;;10.90;;
58784;SDS011;44557;51.862;19.378;2022-10-16T01:19:30;14.40;;;10.50;;
58784;SDS011;44557;51.862;19.378;2022-10-16T01:20:31;12.50;;;9.90;;
58784;SDS011;44557;51.862;19.378;2022-10-16T01:21:40;14.10;;;9.70;;
58784;SDS011;44557;51.862;19.378;2022-10-16T01:25:22;13.30;;;9.70;;
58784;SDS011;44557;51.862;19.378;2022-10-16T01:28:04;14.30;;;10.20;;
58784;SDS011;44557;51.862;19.378;2022-10-16T01:29:29;12.70;;;9.60;;
58784;SDS011;44557;51.862;19.378;2022-10-16T01:30:33;14.80;;;10.40;;
58784;SDS011;44557;51.862;19.378;2022-10-16T01:31:36;14.30;;;10.50;;
58784;SDS011;44557;51.862;19.378;2022-10-16T01:32:44;12.30;;;10.00;;
58784;SDS011;44557;51.862;19.378;2022-10-16T01:33:54;13.90;;;10.40;;
58784;SDS011;44557;51.862;19.378;2022-10-16T01:35:11;16.70;;;11.00;;
58784;SDS011;44557;51.862;19.378;2022-10-16T01:36:23;14.60;;;9.90;;
58784;SDS011;44557;51.862;19.378;2022-10-16T01:37:50;15.00;;;9.50;;
58784;SDS011;44557;51.862;19.378;2022-10-16T01:38:52;14.60;;;10.30;;
58784;SDS011;44557;51.862;19.378;2022-10-16T01:40:02;12.10;;;9.40;;
58784;SDS011;44557;51.862;19.378;2022-10-16T01:41:11;13.10;;;9.60;;
58784;SDS011;44557;51.862;19.378;2022-10-16T01:42:22;15.00;;;10.20;;
58784;SDS011;44557;51.862;19.378;2022-10-16T01:43:31;12.60;;;10.20;;
58784;SDS011;44557;51.862;19.378;2022-10-16T01:44:37;12.70;;;9.20;;
58784;SDS011;44557;51.862;19.378;2022-10-16T01:45:40;14.10;;;10.30;;
58784;SDS011;44557;51.862;19.378;2022-10-16T01:46:43;13.20;;;9.40;;
58784;SDS011;44557;51.862;19.378;2022-10-16T01:47:49;14.50;;;10.70;;
58784;SDS011;44557;51.862;19.378;2022-10-16T01:48:53;15.20;;;9.90;;
58784;SDS011;44557;51.862;19.378;2022-10-16T01:49:56;14.20;;;9.10;;
58784;SDS011;44557;51.862;19.378;2022-10-16T01:51:02;11.60;;;9.40;;
58784;SDS011;44557;51.862;19.378;2022-10-16T01:52:09;13.70;;;9.50;;
58784;SDS011;44557;51.862;19.378;2022-10-16T01:53:14;14.30;;;9.90;;
58784;SDS011;44557;51.862;19.378;2022-10-16T01:54:17;12.30;;;9.60;;
58784;SDS011;44557;51.862;19.378;2022-10-16T01:55:28;12.60;;;9.40;;
58784;SDS011;44557;51.862;19.378;2022-10-16T01:56:34;14.50;;;9.20;;
58784;SDS011;44557;51.862;19.378;2022-10-16T01:57:38;13.10;;;9.90;;
58784;SDS011;44557;51.862;19.378;2022-10-16T01:58:45;13.10;;;9.10;;
58784;SDS011;44557;51.862;19.378;2022-10-16T01:59:58;12.60;;;9.40;;
58784;SDS011;44557;51.862;19.378;2022-10-16T02:01:04;14.10;;;10.20;;
58784;SDS011;44557;51.862;19.378;2022-10-16T02:02:11;14.90;;;10.30;;
58784;SDS011;44557;51.862;19.378;2022-10-16T02:03:15;14.60;;;10.30;;
58784;SDS011;44557;51.862;19.378;2022-10-16T02:05:34;12.50;;;10.00;;
58784;SDS011;44557;51.862;19.378;2022-10-16T02:06:42;13.60;;;10.70;;
58784;SDS011;44557;51.862;19.378;2022-10-16T02:07:43;14.90;;;9.70;;
58784;SDS011;44557;51.862;19.378;2022-10-16T02:08:45;13.20;;;9.70;;
58784;SDS011;44557;51.862;19.378;2022-10-16T02:09:47;12.40;;;9.70;;
58784;SDS011;44557;51.862;19.378;2022-10-16T02:10:49;13.20;;;9.40;;
58784;SDS011;44557;51.862;19.378;2022-10-16T02:11:52;12.10;;;9.10;;
58784;SDS011;44557;51.862;19.378;2022-10-16T02:13:17;12.90;;;9.70;;
58784;SDS011;44557;51.862;19.378;2022-10-16T02:14:30;14.40;;;9.80;;
58784;SDS011;44557;51.862;19.378;2022-10-16T02:15:32;14.50;;;9.60;;
58784;SDS011;44557;51.862;19.378;2022-10-16T02:16:38;11.80;;;9.70;;
58784;SDS011;44557;51.862;19.378;2022-10-16T02:17:44;12.10;;;9.30;;
58784;SDS011;44557;51.862;19.378;2022-10-16T02:18:45;13.60;;;9.80;;
58784;SDS011;44557;51.862;19.378;2022-10-16T02:19:48;17.10;;;9.50;;
58784;SDS011;44557;51.862;19.378;2022-10-16T02:20:59;11.50;;;8.80;;
58784;SDS011;44557;51.862;19.378;2022-10-16T02:22:14;12.90;;;9.10;;
58784;SDS011;44557;51.862;19.378;2022-10-16T02:25:18;15.80;;;9.40;;
58784;SDS011;44557;51.862;19.378;2022-10-16T02:26:26;12.60;;;9.50;;
58784;SDS011;44557;51.862;19.378;2022-10-16T02:28:46;12.00;;;8.80;;
58784;SDS011;44557;51.862;19.378;2022-10-16T02:29:54;11.80;;;8.80;;
58784;SDS011;44557;51.862;19.378;2022-10-16T02:31:01;12.90;;;9.50;;
58784;SDS011;44557;51.862;19.378;2022-10-16T02:32:07;14.30;;;9.80;;
58784;SDS011;44557;51.862;19.378;2022-10-16T02:33:11;12.60;;;9.50;;
58784;SDS011;44557;51.862;19.378;2022-10-16T02:34:15;12.80;;;9.50;;
58784;SDS011;44557;51.862;19.378;2022-10-16T02:35:19;14.70;;;9.80;;
58784;SDS011;44557;51.862;19.378;2022-10-16T02:36:24;13.70;;;9.90;;
58784;SDS011;44557;51.862;19.378;2022-10-16T02:37:27;15.30;;;9.50;;
58784;SDS011;44557;51.862;19.378;2022-10-16T02:38:29;12.50;;;9.60;;
58784;SDS011;44557;51.862;19.378;2022-10-16T02:39:32;12.00;;;9.20;;
58784;SDS011;44557;51.862;19.378;2022-10-16T02:40:34;14.00;;;9.20;;
58784;SDS011;44557;51.862;19.378;2022-10-16T02:41:36;13.90;;;9.10;;
58784;SDS011;44557;51.862;19.378;2022-10-16T02:42:39;13.50;;;9.60;;
58784;SDS011;44557;51.862;19.378;2022-10-16T02:43:41;12.20;;;8.90;;
58784;SDS011;44557;51.862;19.378;2022-10-16T02:44:43;12.10;;;9.10;;
58784;SDS011;44557;51.862;19.378;2022-10-16T02:45:44;12.80;;;9.40;;
58784;SDS011;44557;51.862;19.378;2022-10-16T02:46:46;13.00;;;9.50;;
58784;SDS011;44557;51.862;19.378;2022-10-16T02:47:47;12.00;;;9.40;;
58784;SDS011;44557;51.862;19.378;2022-10-16T02:48:49;10.30;;;8.70;;
58784;SDS011;44557;51.862;19.378;2022-10-16T02:49:50;14.30;;;10.30;;
58784;SDS011;44557;51.862;19.378;2022-10-16T02:50:52;13.20;;;9.00;;
58784;SDS011;44557;51.862;19.378;2022-10-16T02:51:53;13.50;;;9.70;;
58784;SDS011;44557;51.862;19.378;2022-10-16T02:52:55;14.30;;;9.90;;
58784;SDS011;44557;51.862;19.378;2022-10-16T02:53:56;13.20;;;9.80;;
58784;SDS011;44557;51.862;19.378;2022-10-16T02:54:58;14.50;;;9.70;;
58784;SDS011;44557;51.862;19.378;2022-10-16T02:55:59;13.60;;;9.90;;
58784;SDS011;44557;51.862;19.378;2022-10-16T02:57:01;14.50;;;10.00;;
58784;SDS011;44557;51.862;19.378;2022-10-16T02:58:02;11.70;;;9.40;;
58784;SDS011;44557;51.862;19.378;2022-10-16T02:59:03;11.50;;;9.00;;
58784;SDS011;44557;51.862;19.378;2022-10-16T03:00:06;12.40;;;9.50;;
58784;SDS011;44557;51.862;19.378;2022-10-16T03:01:09;12.80;;;10.20;;
58784;SDS011;44557;51.862;19.378;2022-10-16T03:02:10;14.90;;;10.60;;
58784;SDS011;44557;51.862;19.378;2022-10-16T03:03:12;13.70;;;10.40;;
58784;SDS011;44557;51.862;19.378;2022-10-16T03:04:13;13.30;;;10.00;;
58784;SDS011;44557;51.862;19.378;2022-10-16T03:05:15;12.40;;;10.00;;
58784;SDS011;44557;51.862;19.378;2022-10-16T03:06:17;14.70;;;11.00;;
58784;SDS011;44557;51.862;19.378;2022-10-16T03:07:18;14.30;;;10.60;;
58784;SDS011;44557;51.862;19.378;2022-10-16T03:08:20;11.60;;;9.60;;
58784;SDS011;44557;51.862;19.378;2022-10-16T03:09:24;15.20;;;10.20;;
58784;SDS011;44557;51.862;19.378;2022-10-16T03:10:26;12.40;;;9.60;;
58784;SDS011;44557;51.862;19.378;2022-10-16T03:11:28;15.00;;;11.00;;
58784;SDS011;44557;51.862;19.378;2022-10-16T03:12:30;12.50;;;9.30;;
58784;SDS011;44557;51.862;19.378;2022-10-16T03:13:31;13.70;;;9.30;;
58784;SDS011;44557;51.862;19.378;2022-10-16T03:14:33;12.10;;;8.90;;
58784;SDS011;44557;51.862;19.378;2022-10-16T03:15:35;13.70;;;9.50;;
58784;SDS011;44557;51.862;19.378;2022-10-16T03:16:36;13.10;;;8.90;;
58784;SDS011;44557;51.862;19.378;2022-10-16T03:17:38;13.30;;;9.60;;
58784;SDS011;44557;51.862;19.378;2022-10-16T03:18:39;14.40;;;9.90;;
58784;SDS011;44557;51.862;19.378;2022-10-16T03:19:41;14.80;;;10.40;;
58784;SDS011;44557;51.862;19.378;2022-10-16T03:20:43;13.40;;;10.10;;
58784;SDS011;44557;51.862;19.378;2022-10-16T03:21:44;17.40;;;11.20;;
58784;SDS011;44557;51.862;19.378;2022-10-16T03:22:46;13.50;;;10.50;;
58784;SDS011;44557;51.862;19.378;2022-10-16T03:23:48;14.60;;;10.10;;
58784;SDS011;44557;51.862;19.378;2022-10-16T03:24:49;15.80;;;10.90;;
58784;SDS011;44557;51.862;19.378;2022-10-16T03:25:51;16.20;;;11.60;;
58784;SDS011;44557;51.862;19.378;2022-10-16T03:26:52;16.70;;;10.60;;
58784;SDS011;44557;51.862;19.378;2022-10-16T03:27:54;14.60;;;10.80;;
58784;SDS011;44557;51.862;19.378;2022-10-16T03:28:55;13.70;;;10.60;;
58784;SDS011;44557;51.862;19.378;2022-10-16T03:29:56;13.80;;;10.00;;
58784;SDS011;44557;51.862;19.378;2022-10-16T03:30:58;13.70;;;10.10;;
58784;SDS011;44557;51.862;19.378;2022-10-16T03:32:00;13.60;;;9.90;;
58784;SDS011;44557;51.862;19.378;2022-10-16T03:33:01;13.30;;;10.10;;
58784;SDS011;44557;51.862;19.378;2022-10-16T03:34:03;14.30;;;10.30;;
58784;SDS011;44557;51.862;19.378;2022-10-16T03:35:04;14.70;;;10.60;;
58784;SDS011;44557;51.862;19.378;2022-10-16T03:36:06;14.50;;;10.70;;
58784;SDS011;44557;51.862;19.378;2022-10-16T03:37:08;13.90;;;10.50;;
58784;SDS011;44557;51.862;19.378;2022-10-16T03:38:09;15.60;;;11.10;;
58784;SDS011;44557;51.862;19.378;2022-10-16T03:39:11;16.20;;;11.10;;
58784;SDS011;44557;51.862;19.378;2022-10-16T03:40:12;15.00;;;10.90;;
58784;SDS011;44557;51.862;19.378;2022-10-16T03:41:14;15.70;;;11.20;;
58784;SDS011;44557;51.862;19.378;2022-10-16T03:42:16;14.20;;;11.10;;
58784;SDS011;44557;51.862;19.378;2022-10-16T03:43:17;14.00;;;10.90;;
58784;SDS011;44557;51.862;19.378;2022-10-16T03:44:19;16.50;;;11.00;;
58784;SDS011;44557;51.862;19.378;2022-10-16T03:45:20;16.00;;;10.50;;
58784;SDS011;44557;51.862;19.378;2022-10-16T03:46:22;15.30;;;10.10;;
58784;SDS011;44557;51.862;19.378;2022-10-16T03:47:23;14.60;;;11.00;;
58784;SDS011;44557;51.862;19.378;2022-10-16T03:48:25;14.60;;;10.70;;
58784;SDS011;44557;51.862;19.378;2022-10-16T03:49:26;15.20;;;10.60;;
58784;SDS011;44557;51.862;19.378;2022-10-16T03:50:27;14.80;;;10.20;;
58784;SDS011;44557;51.862;19.378;2022-10-16T03:51:29;13.80;;;10.20;;
58784;SDS011;44557;51.862;19.378;2022-10-16T03:52:30;14.80;;;10.30;;
58784;SDS011;44557;51.862;19.378;2022-10-16T03:53:33;14.30;;;11.20;;
58784;SDS011;44557;51.862;19.378;2022-10-16T03:54:34;15.20;;;11.60;;
58784;SDS011;44557;51.862;19.378;2022-10-16T03:55:36;15.30;;;10.80;;
58784;SDS011;44557;51.862;19.378;2022-10-16T03:56:37;15.70;;;11.40;;
58784;SDS011;44557;51.862;19.378;2022-10-16T03:57:39;15.80;;;11.10;;
58784;SDS011;44557;51.862;19.378;2022-10-16T03:58:40;15.50;;;11.50;;
58784;SDS011;44557;51.862;19.378;2022-10-16T03:59:42;14.70;;;10.90;;
58784;SDS011;44557;51.862;19.378;2022-10-16T04:00:44;14.90;;;11.70;;
58784;SDS011;44557;51.862;19.378;2022-10-16T04:01:46;16.60;;;11.20;;
58784;SDS011;44557;51.862;19.378;2022-10-16T04:02:47;14.90;;;10.90;;
58784;SDS011;44557;51.862;19.378;2022-10-16T04:03:49;16.20;;;11.10;;
58784;SDS011;44557;51.862;19.378;2022-10-16T04:04:50;15.60;;;11.70;;
58784;SDS011;44557;51.862;19.378;2022-10-16T04:05:52;16.00;;;12.20;;
58784;SDS011;44557;51.862;19.378;2022-10-16T04:06:54;15.40;;;11.90;;
58784;SDS011;44557;51.862;19.378;2022-10-16T04:07:55;15.20;;;11.80;;
58784;SDS011;44557;51.862;19.378;2022-10-16T04:08:56;15.60;;;12.10;;
58784;SDS011;44557;51.862;19.378;2022-10-16T04:09:58;17.30;;;13.10;;
58784;SDS011;44557;51.862;19.378;2022-10-16T04:11:00;16.60;;;12.30;;
58784;SDS011;44557;51.862;19.378;2022-10-16T04:12:02;18.00;;;13.00;;
58784;SDS011;44557;51.862;19.378;2022-10-16T04:13:04;18.30;;;12.70;;
58784;SDS011;44557;51.862;19.378;2022-10-16T04:14:05;16.10;;;12.10;;
58784;SDS011;44557;51.862;19.378;2022-10-16T04:15:07;15.90;;;12.20;;
58784;SDS011;44557;51.862;19.378;2022-10-16T04:16:09;17.20;;;12.50;;
58784;SDS011;44557;51.862;19.378;2022-10-16T04:17:10;16.70;;;12.50;;
58784;SDS011;44557;51.862;19.378;2022-10-16T04:18:12;16.80;;;11.90;;
58784;SDS011;44557;51.862;19.378;2022-10-16T04:19:13;16.20;;;12.00;;
58784;SDS011;44557;51.862;19.378;2022-10-16T04:20:15;17.50;;;11.80;;
58784;SDS011;44557;51.862;19.378;2022-10-16T04:21:16;18.40;;;13.40;;
58784;SDS011;44557;51.862;19.378;2022-10-16T04:22:17;16.80;;;11.60;;
58784;SDS011;44557;51.862;19.378;2022-10-16T04:23:19;17.80;;;12.70;;
58784;SDS011;44557;51.862;19.378;2022-10-16T04:24:20;18.30;;;13.50;;
58784;SDS011;44557;51.862;19.378;2022-10-16T04:25:22;19.10;;;13.40;;
58784;SDS011;44557;51.862;19.378;2022-10-16T04:26:23;16.10;;;12.80;;
58784;SDS011;44557;51.862;19.378;2022-10-16T04:27:25;18.90;;;14.00;;
58784;SDS011;44557;51.862;19.378;2022-10-16T04:28:26;18.40;;;13.40;;
58784;SDS011;44557;51.862;19.378;2022-10-16T04:29:28;14.70;;;12.70;;
58784;SDS011;44557;51.862;19.378;2022-10-16T04:30:30;18.20;;;13.70;;
58784;SDS011;44557;51.862;19.378;2022-10-16T04:31:31;17.40;;;13.10;;
58784;SDS011;44557;51.862;19.378;2022-10-16T04:32:33;17.70;;;13.30;;
58784;SDS011;44557;51.862;19.378;2022-10-16T04:33:34;17.90;;;12.80;;
58784;SDS011;44557;51.862;19.378;2022-10-16T04:34:36;17.60;;;13.00;;
58784;SDS011;44557;51.862;19.378;2022-10-16T04:35:37;17.30;;;13.10;;
58784;SDS011;44557;51.862;19.378;2022-10-16T04:36:39;16.20;;;13.10;;
58784;SDS011;44557;51.862;19.378;2022-10-16T04:37:40;18.20;;;13.50;;
58784;SDS011;44557;51.862;19.378;2022-10-16T04:38:41;17.50;;;13.30;;
58784;SDS011;44557;51.862;19.378;2022-10-16T04:39:43;17.60;;;12.80;;
58784;SDS011;44557;51.862;19.378;2022-10-16T04:40:46;16.90;;;12.50;;
58784;SDS011;44557;51.862;19.378;2022-10-16T04:41:47;17.90;;;13.20;;
58784;SDS011;44557;51.862;19.378;2022-10-16T04:42:48;17.30;;;12.90;;
58784;SDS011;44557;51.862;19.378;2022-10-16T04:43:50;16.70;;;12.70;;
58784;SDS011;44557;51.862;19.378;2022-10-16T04:44:51;18.00;;;13.30;;
58784;SDS011;44557;51.862;19.378;2022-10-16T04:45:53;19.20;;;13.70;;
58784;SDS011;44557;51.862;19.378;2022-10-16T04:46:55;18.30;;;14.00;;
58784;SDS011;44557;51.862;19.378;2022-10-16T04:47:57;18.40;;;13.90;;
58784;SDS011;44557;51.862;19.378;2022-10-16T04:49:00;16.00;;;12.70;;
58784;SDS011;44557;51.862;19.378;2022-10-16T04:50:02;17.20;;;13.30;;
58784;SDS011;44557;51.862;19.378;2022-10-16T04:51:03;18.50;;;13.70;;
58784;SDS011;44557;51.862;19.378;2022-10-16T04:52:05;20.20;;;14.20;;
58784;SDS011;44557;51.862;19.378;2022-10-16T04:53:06;17.30;;;13.40;;
58784;SDS011;44557;51.862;19.378;2022-10-16T04:54:08;16.80;;;12.30;;
58784;SDS011;44557;51.862;19.378;2022-10-16T04:55:10;21.40;;;12.30;;
58784;SDS011;44557;51.862;19.378;2022-10-16T04:56:12;17.80;;;12.50;;
58784;SDS011;44557;51.862;19.378;2022-10-16T04:57:13;18.40;;;12.50;;
58784;SDS011;44557;51.862;19.378;2022-10-16T04:58:15;17.20;;;12.60;;
58784;SDS011;44557;51.862;19.378;2022-10-16T04:59:17;16.80;;;11.80;;
58784;SDS011;44557;51.862;19.378;2022-10-16T05:00:19;16.20;;;13.10;;
58784;SDS011;44557;51.862;19.378;2022-10-16T05:01:21;19.40;;;13.50;;
58784;SDS011;44557;51.862;19.378;2022-10-16T05:02:22;16.30;;;12.80;;
58784;SDS011;44557;51.862;19.378;2022-10-16T05:03:24;17.40;;;12.90;;
58784;SDS011;44557;51.862;19.378;2022-10-16T05:04:25;19.50;;;13.70;;
58784;SDS011;44557;51.862;19.378;2022-10-16T05:05:27;17.40;;;13.80;;
58784;SDS011;44557;51.862;19.378;2022-10-16T05:06:29;18.60;;;14.40;;
58784;SDS011;44557;51.862;19.378;2022-10-16T05:07:30;19.00;;;13.50;;
58784;SDS011;44557;51.862;19.378;2022-10-16T05:08:31;16.10;;;11.80;;
58784;SDS011;44557;51.862;19.378;2022-10-16T05:09:33;18.90;;;13.40;;
58784;SDS011;44557;51.862;19.378;2022-10-16T05:10:35;17.20;;;12.70;;
58784;SDS011;44557;51.862;19.378;2022-10-16T05:11:36;18.20;;;13.30;;
58784;SDS011;44557;51.862;19.378;2022-10-16T05:12:37;17.40;;;13.30;;
58784;SDS011;44557;51.862;19.378;2022-10-16T05:13:39;17.20;;;12.90;;
58784;SDS011;44557;51.862;19.378;2022-10-16T05:14:40;16.90;;;12.60;;
58784;SDS011;44557;51.862;19.378;2022-10-16T05:15:42;17.90;;;12.40;;
58784;SDS011;44557;51.862;19.378;2022-10-16T05:16:48;17.40;;;12.30;;
58784;SDS011;44557;51.862;19.378;2022-10-16T05:17:52;14.70;;;11.90;;
58784;SDS011;44557;51.862;19.378;2022-10-16T05:18:54;15.40;;;12.20;;
58784;SDS011;44557;51.862;19.378;2022-10-16T05:19:56;17.50;;;13.10;;
58784;SDS011;44557;51.862;19.378;2022-10-16T05:20:57;17.30;;;13.00;;
58784;SDS011;44557;51.862;19.378;2022-10-16T05:21:59;18.80;;;14.90;;
58784;SDS011;44557;51.862;19.378;2022-10-16T05:23:00;17.60;;;13.60;;
58784;SDS011;44557;51.862;19.378;2022-10-16T05:24:02;17.40;;;13.20;;
58784;SDS011;44557;51.862;19.378;2022-10-16T05:25:04;18.50;;;14.40;;
58784;SDS011;44557;51.862;19.378;2022-10-16T05:26:05;17.30;;;13.40;;
58784;SDS011;44557;51.862;19.378;2022-10-16T05:27:07;19.50;;;14.40;;
58784;SDS011;44557;51.862;19.378;2022-10-16T05:28:08;19.40;;;13.90;;
58784;SDS011;44557;51.862;19.378;2022-10-16T05:29:10;19.80;;;13.40;;
58784;SDS011;44557;51.862;19.378;2022-10-16T05:30:11;17.50;;;13.30;;
58784;SDS011;44557;51.862;19.378;2022-10-16T05:31:13;17.90;;;13.30;;
58784;SDS011;44557;51.862;19.378;2022-10-16T05:32:15;18.10;;;13.30;;
58784;SDS011;44557;51.862;19.378;2022-10-16T05:33:19;18.20;;;13.60;;
58784;SDS011;44557;51.862;19.378;2022-10-16T05:34:21;17.60;;;13.20;;
58784;SDS011;44557;51.862;19.378;2022-10-16T05:35:23;16.60;;;13.30;;
58784;SDS011;44557;51.862;19.378;2022-10-16T05:36:24;18.80;;;13.00;;
58784;SDS011;44557;51.862;19.378;2022-10-16T05:37:29;18.70;;;14.10;;
58784;SDS011;44557;51.862;19.378;2022-10-16T05:38:30;20.40;;;13.90;;
58784;SDS011;44557;51.862;19.378;2022-10-16T05:39:32;17.70;;;14.10;;
58784;SDS011;44557;51.862;19.378;2022-10-16T05:40:33;18.10;;;13.90;;
58784;SDS011;44557;51.862;19.378;2022-10-16T05:41:35;18.30;;;14.10;;
58784;SDS011;44557;51.862;19.378;2022-10-16T05:42:36;19.90;;;14.90;;
58784;SDS011;44557;51.862;19.378;2022-10-16T05:43:38;18.20;;;13.30;;
58784;SDS011;44557;51.862;19.378;2022-10-16T05:44:39;17.80;;;13.10;;
58784;SDS011;44557;51.862;19.378;2022-10-16T05:45:41;20.70;;;13.80;;
58784;SDS011;44557;51.862;19.378;2022-10-16T05:46:43;19.20;;;14.40;;
58784;SDS011;44557;51.862;19.378;2022-10-16T05:47:47;18.60;;;14.60;;
58784;SDS011;44557;51.862;19.378;2022-10-16T05:48:51;19.70;;;13.70;;
58784;SDS011;44557;51.862;19.378;2022-10-16T05:49:54;18.70;;;14.10;;
58784;SDS011;44557;51.862;19.378;2022-10-16T05:51:03;18.30;;;13.70;;
58784;SDS011;44557;51.862;19.378;2022-10-16T05:52:06;17.20;;;13.60;;
58784;SDS011;44557;51.862;19.378;2022-10-16T05:53:08;16.90;;;12.90;;
58784;SDS011;44557;51.862;19.378;2022-10-16T05:54:09;20.40;;;14.20;;
58784;SDS011;44557;51.862;19.378;2022-10-16T05:55:11;19.20;;;14.00;;
58784;SDS011;44557;51.862;19.378;2022-10-16T05:56:12;19.00;;;14.30;;
58784;SDS011;44557;51.862;19.378;2022-10-16T05:57:14;18.60;;;14.10;;
58784;SDS011;44557;51.862;19.378;2022-10-16T05:58:15;19.40;;;13.00;;
58784;SDS011;44557;51.862;19.378;2022-10-16T05:59:17;16.80;;;13.60;;
58784;SDS011;44557;51.862;19.378;2022-10-16T06:00:18;18.00;;;14.10;;
58784;SDS011;44557;51.862;19.378;2022-10-16T06:01:20;20.70;;;13.70;;
58784;SDS011;44557;51.862;19.378;2022-10-16T06:02:25;18.70;;;14.10;;
58784;SDS011;44557;51.862;19.378;2022-10-16T06:03:26;19.10;;;13.50;;
58784;SDS011;44557;51.862;19.378;2022-10-16T06:04:28;16.60;;;13.20;;
58784;SDS011;44557;51.862;19.378;2022-10-16T06:05:29;19.10;;;14.50;;
58784;SDS011;44557;51.862;19.378;2022-10-16T06:06:31;18.70;;;13.50;;
58784;SDS011;44557;51.862;19.378;2022-10-16T06:07:35;22.10;;;13.80;;
58784;SDS011;44557;51.862;19.378;2022-10-16T06:08:37;18.60;;;13.50;;
58784;SDS011;44557;51.862;19.378;2022-10-16T06:09:39;18.00;;;14.40;;
58784;SDS011;44557;51.862;19.378;2022-10-16T06:10:40;18.70;;;13.40;;
58784;SDS011;44557;51.862;19.378;2022-10-16T06:11:42;17.40;;;13.10;;
58784;SDS011;44557;51.862;19.378;2022-10-16T06:12:43;19.40;;;13.80;;
58784;SDS011;44557;51.862;19.378;2022-10-16T06:13:45;19.30;;;14.10;;
58784;SDS011;44557;51.862;19.378;2022-10-16T06:14:53;18.20;;;13.60;;
58784;SDS011;44557;51.862;19.378;2022-10-16T06:15:58;18.10;;;14.30;;
58784;SDS011;44557;51.862;19.378;2022-10-16T06:17:01;17.80;;;14.20;;
58784;SDS011;44557;51.862;19.378;2022-10-16T06:18:02;20.40;;;13.50;;
58784;SDS011;44557;51.862;19.378;2022-10-16T06:19:04;16.70;;;12.90;;
58784;SDS011;44557;51.862;19.378;2022-10-16T06:20:07;17.60;;;13.80;;
58784;SDS011;44557;51.862;19.378;2022-10-16T06:21:13;15.90;;;12.40;;
58784;SDS011;44557;51.862;19.378;2022-10-16T06:22:17;18.60;;;14.40;;
58784;SDS011;44557;51.862;19.378;2022-10-16T06:23:19;16.70;;;12.80;;
58784;SDS011;44557;51.862;19.378;2022-10-16T06:24:20;17.70;;;14.40;;
58784;SDS011;44557;51.862;19.378;2022-10-16T06:25:22;17.40;;;13.40;;